Time;durP1;ratioP1;P1;durP2;ratioP2;P2;SDS_P1;SDS_P2;PMS_P1;PMS_P2;Temp;Humidity;BMP_temperature;BMP_pressure;BME280_temperature;BME280_humidity;BME280_pressure;Samples;Min_cycle;Max_cycle;Signal;HPM_P1;HPM_P2
2023/12/13 00:01:44;;;;;;;88.00;26.17;;;;;;;;;;5035834;28;20042;-64
2023/12/13 00:04:10;;;;;;;89.53;26.30;;;;;;;;;;5034182;28;20412;-64
2023/12/13 00:06:36;;;;;;;98.78;24.35;;;;;;;;;;5033668;28;20109;-64
2023/12/13 00:09:02;;;;;;;86.80;24.27;;;;;;;;;;5034846;28;20116;-64
2023/12/13 00:11:28;;;;;;;96.30;23.80;;;;;;;;;;5033842;28;20041;-64
2023/12/13 00:13:54;;;;;;;90.07;25.42;;;;;;;;;;5033419;28;20038;-65
2023/12/13 00:16:21;;;;;;;96.47;24.88;;;;;;;;;;5031403;28;20056;-64
2023/12/13 00:18:47;;;;;;;101.95;26.08;;;;;;;;;;5032394;28;20041;-64
2023/12/13 00:21:17;;;;;;;107.35;27.63;;;;;;;;;;5033449;28;20053;-64
2023/12/13 00:23:44;;;;;;;124.15;27.50;;;;;;;;;;5038556;28;20041;-64
2023/12/13 00:26:14;;;;;;;104.43;28.17;;;;;;;;;;5036358;28;20084;-65
2023/12/13 00:28:40;;;;;;;114.80;28.63;;;;;;;;;;5016475;28;20044;-64
2023/12/13 00:31:06;;;;;;;110.85;28.70;;;;;;;;;;5034784;28;20119;-64
2023/12/13 00:33:33;;;;;;;105.10;28.73;;;;;;;;;;5032603;28;20941;-64
2023/12/13 00:35:59;;;;;;;105.75;27.15;;;;;;;;;;5032842;28;20041;-64
2023/12/13 00:38:25;;;;;;;109.10;28.95;;;;;;;;;;5033677;28;20048;-65
2023/12/13 00:40:51;;;;;;;118.15;28.70;;;;;;;;;;5032233;28;20080;-64
2023/12/13 00:43:18;;;;;;;119.30;28.33;;;;;;;;;;5033587;28;20069;-64
2023/12/13 00:45:44;;;;;;;96.35;27.23;;;;;;;;;;5031370;28;20041;-64
2023/12/13 00:48:10;;;;;;;108.70;28.75;;;;;;;;;;5032681;28;20037;-65
2023/12/13 00:50:36;;;;;;;101.43;27.45;;;;;;;;;;5033043;28;20041;-64
2023/12/13 00:53:02;;;;;;;71.07;25.92;;;;;;;;;;5034057;28;20055;-65
2023/12/13 00:55:28;;;;;;;89.50;26.50;;;;;;;;;;5032277;28;20110;-64
2023/12/13 00:57:54;;;;;;;80.85;26.33;;;;;;;;;;5032157;28;20048;-65
2023/12/13 01:00:20;;;;;;;73.07;24.75;;;;;;;;;;5031690;28;20390;-64
2023/12/13 01:02:47;;;;;;;73.95;25.10;;;;;;;;;;5015823;28;20080;-64
2023/12/13 01:05:13;;;;;;;72.45;24.50;;;;;;;;;;5032127;28;20268;-64
2023/12/13 01:07:39;;;;;;;63.85;23.60;;;;;;;;;;5032040;28;20409;-64
2023/12/13 01:10:05;;;;;;;62.90;22.42;;;;;;;;;;5031850;28;20033;-64
2023/12/13 01:12:31;;;;;;;64.32;23.35;;;;;;;;;;5033218;28;20044;-64
2023/12/13 01:14:57;;;;;;;57.00;21.42;;;;;;;;;;5031640;28;20037;-67
2023/12/13 01:17:23;;;;;;;53.55;20.83;;;;;;;;;;5031517;28;20504;-64
2023/12/13 01:19:50;;;;;;;47.72;20.10;;;;;;;;;;5033478;28;20140;-64
2023/12/13 01:22:16;;;;;;;46.80;19.98;;;;;;;;;;5032193;28;20541;-65
2023/12/13 01:24:42;;;;;;;51.65;20.35;;;;;;;;;;5033601;28;20044;-64
2023/12/13 01:27:08;;;;;;;48.75;18.90;;;;;;;;;;5032121;28;20030;-64
2023/12/13 01:29:34;;;;;;;53.92;19.73;;;;;;;;;;5031863;28;20041;-64
2023/12/13 01:32:00;;;;;;;50.38;19.58;;;;;;;;;;5031675;28;20098;-64
2023/12/13 01:34:26;;;;;;;53.65;19.55;;;;;;;;;;5033514;28;20041;-64
2023/12/13 01:36:52;;;;;;;47.58;18.02;;;;;;;;;;5032740;28;20048;-64
2023/12/13 01:39:18;;;;;;;44.65;17.52;;;;;;;;;;5035561;28;20037;-64
2023/12/13 01:41:44;;;;;;;47.80;18.45;;;;;;;;;;5032450;28;20524;-64
2023/12/13 01:44:10;;;;;;;45.53;17.60;;;;;;;;;;5032004;28;20053;-64
2023/12/13 01:46:37;;;;;;;40.65;17.02;;;;;;;;;;5032900;28;20039;-64
2023/12/13 01:49:05;;;;;;;44.67;16.58;;;;;;;;;;5033324;28;20045;-64
2023/12/13 01:51:32;;;;;;;36.40;17.40;;;;;;;;;;5031398;28;20034;-64
2023/12/13 01:53:59;;;;;;;34.33;15.55;;;;;;;;;;5032873;28;20125;-64
2023/12/13 01:56:25;;;;;;;35.45;15.27;;;;;;;;;;5031944;28;20044;-64
2023/12/13 01:58:51;;;;;;;38.58;16.75;;;;;;;;;;5034187;28;20038;-65
2023/12/13 02:01:17;;;;;;;34.65;15.73;;;;;;;;;;5030199;28;20072;-65
2023/12/13 02:03:43;;;;;;;32.78;14.02;;;;;;;;;;5034687;28;20041;-65
2023/12/13 02:06:09;;;;;;;36.70;14.80;;;;;;;;;;5030743;28;20528;-65
2023/12/13 02:08:35;;;;;;;36.45;14.63;;;;;;;;;;5032016;28;20038;-65
2023/12/13 02:11:01;;;;;;;31.98;13.80;;;;;;;;;;5031157;28;20094;-64
2023/12/13 02:13:27;;;;;;;33.55;13.80;;;;;;;;;;5028725;28;20041;-65
2023/12/13 02:15:53;;;;;;;29.25;13.52;;;;;;;;;;5030948;28;20056;-65
2023/12/13 02:18:19;;;;;;;35.05;13.43;;;;;;;;;;5030484;28;20425;-64
2023/12/13 02:20:45;;;;;;;32.42;13.27;;;;;;;;;;5031125;28;20057;-65
2023/12/13 02:23:12;;;;;;;31.27;12.90;;;;;;;;;;5033056;28;20044;-64
2023/12/13 02:25:41;;;;;;;31.30;12.65;;;;;;;;;;5034741;28;20429;-64
2023/12/13 02:28:08;;;;;;;32.53;13.50;;;;;;;;;;5039218;28;20065;-65
2023/12/13 02:30:34;;;;;;;29.67;14.07;;;;;;;;;;5030843;28;20507;-65
2023/12/13 02:33:00;;;;;;;31.48;13.38;;;;;;;;;;5029484;28;20065;-65
2023/12/13 02:35:26;;;;;;;29.13;13.30;;;;;;;;;;5034270;28;20064;-67
2023/12/13 02:37:52;;;;;;;28.10;12.63;;;;;;;;;;5025397;28;20041;-65
2023/12/13 02:40:19;;;;;;;27.15;12.90;;;;;;;;;;5005882;28;20076;-66
2023/12/13 02:42:45;;;;;;;31.88;13.23;;;;;;;;;;5028505;28;20069;-64
2023/12/13 02:45:12;;;;;;;33.10;13.35;;;;;;;;;;5037776;28;20091;-64
2023/12/13 02:47:41;;;;;;;30.52;12.63;;;;;;;;;;5035640;28;20052;-64
2023/12/13 02:50:08;;;;;;;29.08;12.73;;;;;;;;;;5023180;28;20049;-64
2023/12/13 02:52:34;;;;;;;25.75;12.15;;;;;;;;;;5034092;28;20107;-64
2023/12/13 02:55:00;;;;;;;23.08;11.48;;;;;;;;;;5040766;28;20071;-63
2023/12/13 02:57:26;;;;;;;30.55;12.18;;;;;;;;;;5053340;22;20048;-62
2023/12/13 02:59:52;;;;;;;32.10;11.93;;;;;;;;;;5054886;28;20102;-62
2023/12/13 03:02:18;;;;;;;26.63;12.00;;;;;;;;;;5043903;28;20048;-62
2023/12/13 03:04:44;;;;;;;23.42;12.32;;;;;;;;;;5050515;28;20037;-62
2023/12/13 03:07:10;;;;;;;33.83;13.60;;;;;;;;;;5031664;28;20159;-62
2023/12/13 03:09:35;;;;;;;27.77;13.20;;;;;;;;;;5049626;28;20481;-62
2023/12/13 03:12:01;;;;;;;30.25;13.32;;;;;;;;;;5042366;28;20037;-62
2023/12/13 03:14:27;;;;;;;27.75;12.55;;;;;;;;;;5049688;28;20041;-62
2023/12/13 03:16:53;;;;;;;29.17;12.38;;;;;;;;;;5048968;28;20404;-62
2023/12/13 03:19:19;;;;;;;31.30;13.00;;;;;;;;;;5048865;28;20041;-62
2023/12/13 03:21:45;;;;;;;26.38;13.15;;;;;;;;;;5050861;28;20033;-62
2023/12/13 03:24:11;;;;;;;28.77;12.68;;;;;;;;;;5047561;28;20032;-63
2023/12/13 03:26:37;;;;;;;30.92;13.10;;;;;;;;;;5051670;28;20111;-62
2023/12/13 03:29:03;;;;;;;29.48;12.63;;;;;;;;;;5047989;28;20033;-63
2023/12/13 03:31:29;;;;;;;31.88;12.88;;;;;;;;;;5050564;28;20427;-63
2023/12/13 03:33:55;;;;;;;30.33;13.65;;;;;;;;;;5051413;28;20095;-62
2023/12/13 03:36:21;;;;;;;33.42;14.20;;;;;;;;;;5030126;28;20045;-62
2023/12/13 03:38:47;;;;;;;32.40;14.60;;;;;;;;;;5040130;28;20441;-62
2023/12/13 03:41:13;;;;;;;34.80;14.80;;;;;;;;;;5050891;28;20045;-62
2023/12/13 03:43:40;;;;;;;36.88;14.95;;;;;;;;;;5050641;28;20068;-62
2023/12/13 03:46:06;;;;;;;35.92;14.80;;;;;;;;;;5049437;28;20076;-63
2023/12/13 03:48:32;;;;;;;35.22;15.02;;;;;;;;;;5033415;28;20077;-62
2023/12/13 03:50:58;;;;;;;35.25;16.00;;;;;;;;;;5047108;28;20075;-62
2023/12/13 03:53:24;;;;;;;35.30;15.30;;;;;;;;;;5050603;28;20053;-62
2023/12/13 03:55:50;;;;;;;35.58;16.63;;;;;;;;;;5050131;28;20055;-62
2023/12/13 03:58:16;;;;;;;34.25;15.02;;;;;;;;;;5050994;28;20045;-62
2023/12/13 04:00:42;;;;;;;34.75;15.45;;;;;;;;;;5026424;28;20545;-62
2023/12/13 04:03:08;;;;;;;34.63;15.02;;;;;;;;;;5049240;28;20477;-62
2023/12/13 04:05:34;;;;;;;34.72;15.27;;;;;;;;;;5050385;28;20048;-62
2023/12/13 04:08:00;;;;;;;36.78;15.60;;;;;;;;;;5031740;28;20040;-62
2023/12/13 04:10:26;;;;;;;35.60;15.88;;;;;;;;;;5050567;28;20033;-62
2023/12/13 04:12:52;;;;;;;40.72;16.15;;;;;;;;;;5049791;28;20045;-62
2023/12/13 04:15:19;;;;;;;32.00;14.82;;;;;;;;;;5040361;28;20037;-62
2023/12/13 04:17:45;;;;;;;36.45;15.45;;;;;;;;;;5048800;28;20493;-62
2023/12/13 04:20:11;;;;;;;39.25;15.63;;;;;;;;;;5051154;28;20045;-62
2023/12/13 04:22:37;;;;;;;37.78;15.77;;;;;;;;;;5050087;28;20059;-62
2023/12/13 04:25:04;;;;;;;34.47;14.90;;;;;;;;;;5050763;28;20455;-62
2023/12/13 04:27:30;;;;;;;33.75;14.48;;;;;;;;;;5050221;28;20035;-62
2023/12/13 04:29:56;;;;;;;36.15;16.45;;;;;;;;;;5050893;28;20037;-62
2023/12/13 04:32:22;;;;;;;39.03;15.32;;;;;;;;;;5050092;28;20491;-62
2023/12/13 04:34:48;;;;;;;32.85;15.00;;;;;;;;;;5050263;28;20059;-62
2023/12/13 04:37:14;;;;;;;34.33;16.15;;;;;;;;;;5054102;28;20398;-62
2023/12/13 04:39:40;;;;;;;33.80;15.32;;;;;;;;;;5048647;28;20045;-62
2023/12/13 04:42:06;;;;;;;38.88;15.85;;;;;;;;;;5052873;28;20048;-62
2023/12/13 04:44:32;;;;;;;37.03;16.02;;;;;;;;;;5053260;28;20174;-62
2023/12/13 04:46:59;;;;;;;36.80;15.98;;;;;;;;;;5053526;28;20197;-62
2023/12/13 04:49:25;;;;;;;36.22;15.90;;;;;;;;;;5053793;28;20040;-62
2023/12/13 04:51:51;;;;;;;42.38;16.52;;;;;;;;;;5053419;28;20492;-62
2023/12/13 04:54:17;;;;;;;36.25;16.08;;;;;;;;;;5053489;28;20041;-62
2023/12/13 04:56:43;;;;;;;41.30;17.17;;;;;;;;;;5053221;28;20507;-62
2023/12/13 04:59:09;;;;;;;34.08;15.27;;;;;;;;;;5053181;28;20064;-62
2023/12/13 05:01:35;;;;;;;35.10;16.48;;;;;;;;;;5044723;28;20043;-62
2023/12/13 05:04:01;;;;;;;36.50;15.45;;;;;;;;;;5046768;28;20115;-62
2023/12/13 05:06:27;;;;;;;38.60;15.73;;;;;;;;;;5037200;28;20416;-62
2023/12/13 05:08:53;;;;;;;42.97;16.52;;;;;;;;;;5053245;28;20043;-62
2023/12/13 05:11:19;;;;;;;44.03;16.80;;;;;;;;;;5047061;28;20033;-61
2023/12/13 05:13:45;;;;;;;35.80;15.98;;;;;;;;;;5056754;28;20568;-62
2023/12/13 05:16:12;;;;;;;37.60;15.85;;;;;;;;;;5052991;28;20094;-62
2023/12/13 05:18:38;;;;;;;45.10;17.27;;;;;;;;;;5053754;28;20048;-62
2023/12/13 05:21:04;;;;;;;36.00;16.92;;;;;;;;;;5053615;28;20045;-62
2023/12/13 05:23:30;;;;;;;38.05;16.55;;;;;;;;;;5051855;28;20037;-62
2023/12/13 05:25:56;;;;;;;36.40;16.45;;;;;;;;;;5051141;28;20044;-62
2023/12/13 05:28:22;;;;;;;42.30;16.25;;;;;;;;;;5053264;28;20574;-62
2023/12/13 05:30:48;;;;;;;40.13;16.25;;;;;;;;;;5052434;28;20033;-62
2023/12/13 05:33:14;;;;;;;38.88;16.75;;;;;;;;;;5052662;28;20491;-62
2023/12/13 05:35:40;;;;;;;40.88;17.40;;;;;;;;;;5046352;28;20056;-62
2023/12/13 05:38:06;;;;;;;34.53;15.98;;;;;;;;;;5050840;28;20385;-63
2023/12/13 05:40:32;;;;;;;37.97;17.17;;;;;;;;;;5052538;28;20044;-62
2023/12/13 05:42:58;;;;;;;45.20;17.63;;;;;;;;;;5052506;28;20068;-63
2023/12/13 05:45:24;;;;;;;35.58;16.73;;;;;;;;;;5033183;28;20124;-63
2023/12/13 05:47:50;;;;;;;42.17;17.13;;;;;;;;;;5031662;28;20548;-62
2023/12/13 05:50:16;;;;;;;36.28;16.35;;;;;;;;;;5045137;28;20037;-63
2023/12/13 05:52:42;;;;;;;45.05;16.80;;;;;;;;;;5040760;28;20152;-63
2023/12/13 05:55:08;;;;;;;42.17;18.33;;;;;;;;;;5046794;28;20408;-62
2023/12/13 05:57:35;;;;;;;40.85;16.65;;;;;;;;;;5048256;28;20033;-62
2023/12/13 06:00:01;;;;;;;36.15;16.10;;;;;;;;;;5052119;28;20488;-63
2023/12/13 06:02:27;;;;;;;40.33;16.52;;;;;;;;;;5043272;28;20060;-62
2023/12/13 06:04:53;;;;;;;38.38;16.50;;;;;;;;;;5031868;28;20075;-63
2023/12/13 06:07:19;;;;;;;41.67;16.20;;;;;;;;;;5043103;28;20064;-62
2023/12/13 06:09:45;;;;;;;41.28;17.48;;;;;;;;;;5044888;28;20400;-62
2023/12/13 06:12:13;;;;;;;36.97;16.60;;;;;;;;;;5044100;28;20032;-62
2023/12/13 06:14:39;;;;;;;39.20;16.63;;;;;;;;;;5049857;28;20044;-63
2023/12/13 06:17:05;;;;;;;36.83;16.25;;;;;;;;;;5049097;28;20498;-62
2023/12/13 06:19:32;;;;;;;34.17;15.82;;;;;;;;;;5047208;28;20037;-62
2023/12/13 06:21:58;;;;;;;39.25;16.15;;;;;;;;;;5046071;28;20503;-62
2023/12/13 06:24:24;;;;;;;40.78;16.67;;;;;;;;;;5051380;28;20033;-63
2023/12/13 06:26:50;;;;;;;36.75;15.65;;;;;;;;;;5052189;28;20452;-63
2023/12/13 06:29:16;;;;;;;35.60;15.65;;;;;;;;;;5049818;28;20037;-62
2023/12/13 06:31:43;;;;;;;32.40;15.50;;;;;;;;;;5052005;28;20569;-63
2023/12/13 06:34:09;;;;;;;37.63;16.20;;;;;;;;;;5050953;28;20029;-63
2023/12/13 06:36:35;;;;;;;41.17;17.30;;;;;;;;;;5051527;28;20055;-63
2023/12/13 06:39:04;;;;;;;41.88;17.73;;;;;;;;;;5050584;28;20111;-62
2023/12/13 06:41:30;;;;;;;37.75;16.80;;;;;;;;;;5048332;28;20412;-62
2023/12/13 06:43:56;;;;;;;38.53;17.02;;;;;;;;;;5048133;28;20040;-63
2023/12/13 06:46:23;;;;;;;35.70;16.85;;;;;;;;;;5032748;28;20417;-62
2023/12/13 06:48:49;;;;;;;38.85;16.02;;;;;;;;;;5050909;28;20051;-62
2023/12/13 06:51:15;;;;;;;39.35;15.95;;;;;;;;;;5048063;28;20488;-62
2023/12/13 06:53:41;;;;;;;38.40;16.27;;;;;;;;;;5051603;28;20037;-62
2023/12/13 06:56:07;;;;;;;40.42;16.42;;;;;;;;;;5032893;28;20072;-63
2023/12/13 06:58:34;;;;;;;35.63;16.63;;;;;;;;;;5050726;28;20044;-62
2023/12/13 07:01:01;;;;;;;37.85;17.25;;;;;;;;;;5049142;28;20080;-63
2023/12/13 07:03:27;;;;;;;34.65;16.33;;;;;;;;;;5027398;28;20068;-63
2023/12/13 07:05:53;;;;;;;41.28;16.63;;;;;;;;;;5047234;28;20132;-62
2023/12/13 07:08:19;;;;;;;42.92;16.98;;;;;;;;;;5048611;28;20037;-63
2023/12/13 07:10:45;;;;;;;40.00;16.65;;;;;;;;;;5046931;28;20522;-63
2023/12/13 07:13:11;;;;;;;25.98;13.52;;;;;;;;;;5050442;28;20041;-63
2023/12/13 07:15:37;;;;;;;33.75;16.48;;;;;;;;;;5051159;28;20123;-62
2023/12/13 07:18:04;;;;;;;34.38;15.77;;;;;;;;;;5050859;28;20040;-63
2023/12/13 07:20:34;;;;;;;35.20;16.17;;;;;;;;;;5050244;28;20045;-63
2023/12/13 07:23:00;;;;;;;34.47;16.10;;;;;;;;;;5040581;28;20043;-63
2023/12/13 07:25:26;;;;;;;35.75;15.57;;;;;;;;;;5036302;28;20091;-62
2023/12/13 07:27:52;;;;;;;77.32;18.55;;;;;;;;;;5027621;28;20119;-63
2023/12/13 07:30:18;;;;;;;40.10;16.13;;;;;;;;;;5045552;28;20132;-62
2023/12/13 07:32:44;;;;;;;36.90;16.63;;;;;;;;;;5047161;28;20041;-63
2023/12/13 07:35:10;;;;;;;39.92;17.02;;;;;;;;;;5046157;28;20049;-62
2023/12/13 07:37:37;;;;;;;37.13;16.85;;;;;;;;;;5045918;28;20043;-62
2023/12/13 07:40:05;;;;;;;41.58;16.65;;;;;;;;;;5049050;28;20043;-62
2023/12/13 07:42:31;;;;;;;42.50;17.50;;;;;;;;;;5047125;28;20116;-63
2023/12/13 07:44:58;;;;;;;45.15;19.00;;;;;;;;;;5047341;28;20037;-62
2023/12/13 07:47:24;;;;;;;44.38;18.42;;;;;;;;;;5049282;28;20157;-62
2023/12/13 07:49:50;;;;;;;41.70;17.02;;;;;;;;;;5047968;28;20049;-62
2023/12/13 07:52:16;;;;;;;39.25;18.35;;;;;;;;;;5047759;28;20095;-62
2023/12/13 07:54:42;;;;;;;40.13;16.98;;;;;;;;;;5047402;28;20055;-62
2023/12/13 07:57:08;;;;;;;40.53;17.55;;;;;;;;;;5046241;28;20041;-63
2023/12/13 07:59:34;;;;;;;39.65;17.25;;;;;;;;;;5045927;28;20037;-62
2023/12/13 08:02:01;;;;;;;35.40;16.27;;;;;;;;;;5046512;28;20048;-62
2023/12/13 08:04:27;;;;;;;37.35;16.58;;;;;;;;;;5045997;28;20381;-62
2023/12/13 08:06:53;;;;;;;33.78;16.45;;;;;;;;;;5048073;28;20041;-63
2023/12/13 08:09:19;;;;;;;38.15;15.75;;;;;;;;;;5048542;28;20037;-63
2023/12/13 08:11:49;;;;;;;41.65;16.45;;;;;;;;;;5052223;28;20401;-62
2023/12/13 08:14:15;;;;;;;38.50;15.45;;;;;;;;;;5052245;28;20112;-62
2023/12/13 08:16:42;;;;;;;37.72;15.85;;;;;;;;;;5050053;28;20404;-62
2023/12/13 08:19:08;;;;;;;40.80;16.63;;;;;;;;;;5032786;28;20032;-62
2023/12/13 08:21:40;;;;;;;36.03;16.00;;;;;;;;;;5044402;28;20063;-63
2023/12/13 08:24:06;;;;;;;39.35;16.25;;;;;;;;;;5052496;28;20043;-62
2023/12/13 08:26:32;;;;;;;35.78;16.83;;;;;;;;;;5053527;28;20172;-62
2023/12/13 08:28:58;;;;;;;35.28;16.55;;;;;;;;;;5053367;28;20072;-62
2023/12/13 08:31:24;;;;;;;34.85;16.23;;;;;;;;;;5035696;28;20447;-62
2023/12/13 08:33:50;;;;;;;44.08;15.85;;;;;;;;;;5051692;28;20044;-62
2023/12/13 08:36:16;;;;;;;36.33;15.70;;;;;;;;;;5051326;28;20132;-62
2023/12/13 08:38:42;;;;;;;36.90;15.40;;;;;;;;;;5050015;28;20051;-62
2023/12/13 08:41:09;;;;;;;35.03;15.38;;;;;;;;;;5052628;28;20033;-62
2023/12/13 08:43:36;;;;;;;38.22;16.88;;;;;;;;;;5051724;28;20393;-62
2023/12/13 08:46:02;;;;;;;33.25;15.18;;;;;;;;;;5053729;28;20445;-63
2023/12/13 08:48:28;;;;;;;35.25;15.80;;;;;;;;;;5098477;22;20177;-72
2023/12/13 08:50:54;;;;;;;39.33;15.48;;;;;;;;;;5096680;28;20031;-72
2023/12/13 08:53:20;;;;;;;36.20;15.13;;;;;;;;;;5096171;28;20035;-72
2023/12/13 08:55:46;;;;;;;36.17;15.52;;;;;;;;;;5095715;28;20040;-71
2023/12/13 08:58:13;;;;;;;37.88;16.30;;;;;;;;;;5097153;28;20129;-71
2023/12/13 09:00:39;;;;;;;33.50;15.15;;;;;;;;;;5099965;28;20039;-72
2023/12/13 09:03:05;;;;;;;30.02;14.30;;;;;;;;;;5096422;28;20055;-71
2023/12/13 09:05:31;;;;;;;39.22;15.48;;;;;;;;;;5095348;28;20113;-71
2023/12/13 09:07:57;;;;;;;38.05;14.85;;;;;;;;;;5097215;28;20090;-71
2023/12/13 09:10:23;;;;;;;34.90;14.98;;;;;;;;;;5096720;28;20520;-72
2023/12/13 09:12:50;;;;;;;37.28;14.38;;;;;;;;;;5093253;28;20034;-72
2023/12/13 09:15:19;;;;;;;39.28;14.60;;;;;;;;;;5096731;28;20039;-72
2023/12/13 09:17:46;;;;;;;36.20;15.23;;;;;;;;;;5094119;28;20068;-71
2023/12/13 09:20:15;;;;;;;38.67;15.70;;;;;;;;;;5095915;28;20456;-71
2023/12/13 09:22:42;;;;;;;36.78;15.85;;;;;;;;;;5095756;28;20032;-72
2023/12/13 09:25:09;;;;;;;43.55;16.45;;;;;;;;;;5094016;28;20048;-72
2023/12/13 09:27:35;;;;;;;39.22;16.38;;;;;;;;;;5096152;28;20090;-72
2023/12/13 09:30:01;;;;;;;41.35;16.83;;;;;;;;;;5091605;28;20036;-72
2023/12/13 09:32:27;;;;;;;40.38;15.70;;;;;;;;;;5091257;28;20570;-71
2023/12/13 09:34:53;;;;;;;41.00;15.98;;;;;;;;;;5088033;28;20040;-72
2023/12/13 09:37:19;;;;;;;38.67;15.45;;;;;;;;;;5094490;28;20047;-72
2023/12/13 09:39:45;;;;;;;40.15;16.35;;;;;;;;;;5092834;28;20451;-71
2023/12/13 09:42:12;;;;;;;33.88;14.90;;;;;;;;;;5096097;28;20089;-71
2023/12/13 09:44:39;;;;;;;31.45;14.55;;;;;;;;;;5093699;28;20125;-70
2023/12/13 09:47:05;;;;;;;34.72;15.25;;;;;;;;;;5090386;28;20089;-71
2023/12/13 09:49:32;;;;;;;36.40;14.35;;;;;;;;;;5086516;28;20032;-71
2023/12/13 09:52:00;;;;;;;38.00;15.60;;;;;;;;;;5094614;28;20478;-71
2023/12/13 09:54:26;;;;;;;33.65;15.05;;;;;;;;;;5096063;28;20044;-71
2023/12/13 09:56:52;;;;;;;33.28;15.23;;;;;;;;;;5090218;28;20592;-71
2023/12/13 09:59:18;;;;;;;33.08;14.48;;;;;;;;;;5093754;28;20032;-71
2023/12/13 10:01:44;;;;;;;37.33;14.68;;;;;;;;;;5089100;28;20040;-71
2023/12/13 10:04:10;;;;;;;29.70;14.25;;;;;;;;;;5091071;28;20036;-71
2023/12/13 10:06:36;;;;;;;31.05;14.40;;;;;;;;;;5099778;28;20067;-71
2023/12/13 10:09:03;;;;;;;33.60;14.35;;;;;;;;;;5099212;28;20047;-70
2023/12/13 10:11:30;;;;;;;32.40;14.48;;;;;;;;;;5108297;28;20032;-71
2023/12/13 10:13:56;;;;;;;31.80;14.25;;;;;;;;;;5093115;28;20043;-71
2023/12/13 10:16:22;;;;;;;35.80;14.45;;;;;;;;;;5111724;28;20050;-72
2023/12/13 10:18:48;;;;;;;39.08;14.45;;;;;;;;;;5113061;28;20035;-71
2023/12/13 10:21:14;;;;;;;32.28;14.55;;;;;;;;;;5109808;28;20425;-71
2023/12/13 10:23:41;;;;;;;32.03;14.65;;;;;;;;;;5091530;28;20543;-71
2023/12/13 10:26:07;;;;;;;29.48;13.68;;;;;;;;;;5111192;28;20035;-71
2023/12/13 10:28:36;;;;;;;31.00;13.75;;;;;;;;;;5107060;28;20078;-71
2023/12/13 10:31:06;;;;;;;30.27;14.13;;;;;;;;;;5096059;28;20040;-71
2023/12/13 10:33:32;;;;;;;29.67;14.18;;;;;;;;;;5103983;28;20075;-72
2023/12/13 10:35:59;;;;;;;35.08;14.13;;;;;;;;;;5112549;28;20039;-72
2023/12/13 10:38:26;;;;;;;35.25;13.82;;;;;;;;;;5112999;27;20493;-72
2023/12/13 10:40:52;;;;;;;33.95;13.63;;;;;;;;;;5112415;28;20388;-72
2023/12/13 10:43:19;;;;;;;33.42;14.65;;;;;;;;;;5101942;28;20040;-72
2023/12/13 10:45:51;;;;;;;33.72;14.70;;;;;;;;;;5107974;28;20048;-72
2023/12/13 10:48:17;;;;;;;31.88;14.30;;;;;;;;;;5100915;28;20036;-72
2023/12/13 10:50:47;;;;;;;36.13;15.20;;;;;;;;;;5107348;28;20043;-72
2023/12/13 10:53:14;;;;;;;33.17;15.02;;;;;;;;;;5101199;28;20051;-72
2023/12/13 10:55:40;;;;;;;37.00;15.88;;;;;;;;;;5107136;28;20036;-72
2023/12/13 10:58:06;;;;;;;34.03;15.13;;;;;;;;;;5112053;28;20093;-72
2023/12/13 11:00:33;;;;;;;40.28;16.88;;;;;;;;;;5112362;28;20043;-72
2023/12/13 11:03:06;;;;;;;39.03;16.35;;;;;;;;;;5111204;28;20036;-72
2023/12/13 11:05:32;;;;;;;37.45;16.10;;;;;;;;;;5099145;28;20035;-72
2023/12/13 11:07:58;;;;;;;40.28;16.25;;;;;;;;;;5112281;28;20096;-72
2023/12/13 11:10:24;;;;;;;39.90;17.30;;;;;;;;;;5111291;28;20039;-72
2023/12/13 11:12:51;;;;;;;35.25;15.27;;;;;;;;;;5111684;28;20035;-72
2023/12/13 11:15:19;;;;;;;38.90;17.65;;;;;;;;;;5110717;28;20095;-72
2023/12/13 11:17:48;;;;;;;37.75;16.35;;;;;;;;;;5111673;28;20512;-72
2023/12/13 11:20:14;;;;;;;39.05;17.40;;;;;;;;;;5100994;28;20044;-72
2023/12/13 11:22:43;;;;;;;36.47;17.10;;;;;;;;;;5106241;28;20043;-72
2023/12/13 11:25:10;;;;;;;34.75;16.75;;;;;;;;;;5112033;28;20060;-72
2023/12/13 11:27:36;;;;;;;38.25;17.40;;;;;;;;;;5111772;28;20498;-72
2023/12/13 11:30:16;;;;;;;37.22;17.10;;;;;;;;;;5111186;28;20035;-72
2023/12/13 11:32:48;;;;;;;40.35;17.25;;;;;;;;;;5112083;28;20039;-72
2023/12/13 11:35:16;;;;;;;36.38;17.55;;;;;;;;;;5094786;28;20051;-72
2023/12/13 11:37:42;;;;;;;36.35;17.13;;;;;;;;;;5112103;28;20421;-71
2023/12/13 11:40:09;;;;;;;37.58;18.30;;;;;;;;;;5111593;28;20410;-72
2023/12/13 11:42:35;;;;;;;38.80;18.13;;;;;;;;;;5111447;28;20044;-72
2023/12/13 11:45:01;;;;;;;38.90;18.73;;;;;;;;;;5096816;28;20505;-72
2023/12/13 11:47:27;;;;;;;38.25;17.38;;;;;;;;;;5114322;28;20047;-72
2023/12/13 11:49:53;;;;;;;33.10;17.23;;;;;;;;;;5116199;28;20097;-72
2023/12/13 11:52:19;;;;;;;42.00;18.02;;;;;;;;;;5115497;28;20071;-72
2023/12/13 11:54:45;;;;;;;35.45;17.08;;;;;;;;;;5115591;28;20118;-72
2023/12/13 11:57:15;;;;;;;38.75;17.92;;;;;;;;;;5114008;28;20092;-72
2023/12/13 11:59:42;;;;;;;35.72;18.52;;;;;;;;;;5114580;28;20097;-72
2023/12/13 12:02:08;;;;;;;36.38;17.48;;;;;;;;;;5115725;28;20082;-72
2023/12/13 12:04:35;;;;;;;36.63;18.00;;;;;;;;;;5115405;28;20049;-71
2023/12/13 12:07:01;;;;;;;34.58;17.55;;;;;;;;;;5103678;28;20040;-72
2023/12/13 12:09:27;;;;;;;41.72;18.50;;;;;;;;;;5115685;28;20119;-72
2023/12/13 12:11:54;;;;;;;37.83;18.80;;;;;;;;;;5114155;28;20466;-72
2023/12/13 12:14:20;;;;;;;34.65;18.13;;;;;;;;;;5115407;28;20425;-72
2023/12/13 12:16:46;;;;;;;38.63;18.15;;;;;;;;;;5110683;28;20043;-72
2023/12/13 12:19:12;;;;;;;35.97;17.90;;;;;;;;;;5115389;28;20043;-72
2023/12/13 12:21:38;;;;;;;35.65;17.88;;;;;;;;;;5113678;28;20198;-72
2023/12/13 12:24:04;;;;;;;36.55;18.23;;;;;;;;;;5115014;28;20171;-72
2023/12/13 12:26:30;;;;;;;36.00;17.88;;;;;;;;;;5110663;27;20082;-72
2023/12/13 12:28:56;;;;;;;40.80;18.67;;;;;;;;;;5113584;28;20035;-72
2023/12/13 12:31:22;;;;;;;38.75;18.13;;;;;;;;;;5115276;28;20035;-72
2023/12/13 12:33:55;;;;;;;38.85;18.50;;;;;;;;;;5113680;28;20508;-72
2023/12/13 12:36:21;;;;;;;38.30;18.15;;;;;;;;;;5098669;28;20042;-72
2023/12/13 12:38:48;;;;;;;38.53;18.63;;;;;;;;;;5114976;28;20039;-72
2023/12/13 12:41:14;;;;;;;38.92;18.55;;;;;;;;;;5098456;28;20048;-72
2023/12/13 12:43:40;;;;;;;34.88;17.80;;;;;;;;;;5114584;28;20124;-72
2023/12/13 12:46:06;;;;;;;37.83;18.65;;;;;;;;;;5103065;28;20463;-72
2023/12/13 12:48:33;;;;;;;33.67;18.13;;;;;;;;;;5106725;28;20043;-72
2023/12/13 12:50:59;;;;;;;43.35;20.05;;;;;;;;;;5110837;28;20027;-72
2023/12/13 12:53:25;;;;;;;39.20;20.25;;;;;;;;;;5113076;28;20459;-72
2023/12/13 12:55:51;;;;;;;37.15;18.92;;;;;;;;;;5114145;28;20127;-72
2023/12/13 12:58:18;;;;;;;42.05;19.33;;;;;;;;;;5113073;28;20046;-72
2023/12/13 13:00:44;;;;;;;37.92;18.75;;;;;;;;;;5115276;27;20449;-72
2023/12/13 13:03:10;;;;;;;40.35;19.08;;;;;;;;;;5113830;28;20035;-72
2023/12/13 13:05:36;;;;;;;40.22;19.80;;;;;;;;;;5114632;27;20085;-72
2023/12/13 13:08:02;;;;;;;41.58;19.45;;;;;;;;;;5113302;28;20043;-72
2023/12/13 13:10:28;;;;;;;38.75;20.20;;;;;;;;;;5114141;28;20039;-72
2023/12/13 13:12:55;;;;;;;42.40;19.58;;;;;;;;;;5114016;28;20115;-71
2023/12/13 13:15:22;;;;;;;42.15;19.77;;;;;;;;;;5109357;28;20049;-71
2023/12/13 13:17:49;;;;;;;48.45;20.08;;;;;;;;;;5110015;28;20084;-71
2023/12/13 13:20:18;;;;;;;42.60;20.02;;;;;;;;;;5112075;28;20560;-72
2023/12/13 13:22:45;;;;;;;48.25;21.75;;;;;;;;;;5113743;28;20520;-72
2023/12/13 13:25:11;;;;;;;51.83;22.23;;;;;;;;;;5114175;28;20039;-72
2023/12/13 13:27:37;;;;;;;44.63;20.00;;;;;;;;;;5113618;28;20032;-72
2023/12/13 13:30:04;;;;;;;49.60;21.67;;;;;;;;;;5113457;28;20566;-72
2023/12/13 13:32:31;;;;;;;47.00;21.20;;;;;;;;;;5113968;28;20051;-72
2023/12/13 13:34:57;;;;;;;45.70;20.67;;;;;;;;;;5113327;28;20043;-71
2023/12/13 13:37:23;;;;;;;49.00;21.95;;;;;;;;;;5097703;28;20049;-71
2023/12/13 13:39:49;;;;;;;44.17;20.48;;;;;;;;;;5096953;28;20067;-71
2023/12/13 13:42:16;;;;;;;43.13;20.55;;;;;;;;;;5113169;28;20044;-71
2023/12/13 13:44:42;;;;;;;47.50;21.23;;;;;;;;;;5113418;28;20066;-72
2023/12/13 13:47:08;;;;;;;41.88;20.50;;;;;;;;;;5111784;27;20452;-72
2023/12/13 13:49:35;;;;;;;46.53;19.77;;;;;;;;;;5091200;28;20031;-72
2023/12/13 13:52:02;;;;;;;43.42;20.17;;;;;;;;;;5096569;28;20036;-72
2023/12/13 13:54:31;;;;;;;42.60;19.73;;;;;;;;;;5113398;28;20040;-72
2023/12/13 13:56:57;;;;;;;41.50;19.38;;;;;;;;;;5113630;28;20035;-72
2023/12/13 13:59:23;;;;;;;41.35;19.38;;;;;;;;;;5106570;28;20089;-72
2023/12/13 14:01:50;;;;;;;38.35;18.02;;;;;;;;;;5113137;28;20051;-72
2023/12/13 14:04:16;;;;;;;37.88;18.67;;;;;;;;;;5108631;28;20052;-72
2023/12/13 14:06:42;;;;;;;43.13;18.92;;;;;;;;;;5099893;28;20122;-72
2023/12/13 14:09:09;;;;;;;41.53;19.27;;;;;;;;;;5105256;28;20165;-72
2023/12/13 14:11:35;;;;;;;40.55;18.02;;;;;;;;;;5113202;28;20080;-72